ENGM

Oslo/Gardermoen Airport

Airport
ICAO code
ENGM
IATA Code
OSL
Summary
ICAO Region
EUR
ICAO Territory
Location

Gardermoen, Ullensaker, Akershus,

Serving
Oslo
Elevation
681 ft
Coordinates
60° 11' 39" N , 11° 6' 1" E
KCC
Airport LOS
Parallel Runway Operation
Airport RI
Runway Misidentification
Metar
Observation
ENGM 260220Z 18011KT 9999 -RA BKN034 08/06 Q0997
Station
Oslo / Gardermoen
Date/Time
2022-09-26 02:20:00
Wind direction
180°
Wind speed
11 kts
Lowest cloud amount
broken clouds
Temperature
8°C
Dew point
6°C
Humidity
87%
QNH
997 hPa
Weather condition
light rain

Description

International airport serving the Norwegian capital.

Climatology

Humid Continental climate (Köppen climate classification Dfb) - Variable weather patterns and a large seasonal temperature variance. Summers are often warm and humid with frequent thunderstorms and winters can be very cold with frequent snowfall and persistent snow cover.

In the winter, steam fog sometimes forms over the lakes to the north of the airfield and, if there is a light Northerly wind, the fog gets blown over the airfield often without much notice.

Runways

Designator Length Width Surface Rops
01R/19L 2950 45 ASP Yes/Yes
01L/19R 3600 45 ASP Yes/Yes

SKYbrary Partners:

Safety knowledge contributed by: